Overview Statistics Trail Chart Weather Telemetry Raw packets
 

This is the latest recevied weather packets stored in our database for station/object K7MT-WX. If no packets are shown the sender has not sent any weather packets the latest 10 day(s).

<< 11 12 13 14 15 16 17 >>
Time Temp. Humidity Pressure Rain* Wind** Luminosity Snow
1788339965 14.44° C 85% 1010.6 hPa 0.25 mm - - -
1788339065 14.44° C 86% 1011 hPa 0.51 mm - - -
1788338165 13.89° C 87% 1011.7 hPa 1.27 mm - - -
1788337265 13.89° C 87% 1012.4 hPa 1.52 mm - - -
1788336365 14.44° C 84% 1012.7 hPa 2.03 mm - - -
1788335465 15° C 79% 1013 hPa 2.03 mm - - -
1788334565 15° C 79% 1013.2 hPa 1.27 mm - - -
1788333665 15.56° C 76% 1012.9 hPa 1.02 mm - - -
1788332765 16.67° C 68% 1012.4 hPa 0.25 mm - - -
1788331865 18.33° C 57% 1012.7 hPa 0 mm - - -
1788330965 18.89° C 53% 1012.5 hPa 0 mm - - -
1788330065 18.33° C 56% 1011.9 hPa 0 mm - - -
1788329165 18.33° C 58% 1011.5 hPa 0 mm - - -
1788328265 18.33° C 59% 1011.2 hPa 0 mm - - -
1788327365 17.22° C 64% 1011 hPa 0 mm - - -
1788326465 17.78° C 66% 1011.1 hPa 0 mm - - -
1788325565 18.89° C 60% 1010.8 hPa 0 mm - - -
1788324665 18.89° C 55% 1011.4 hPa 0 mm - - -
1788323765 18.89° C 56% 1011.1 hPa 0 mm - - -
1788322865 19.44° C 56% 1011 hPa 0 mm - - -
1788321965 21.67° C 44% 1010.7 hPa 0 mm - - -
1788321065 21.11° C 42% 1010.2 hPa 0 mm - - -
1788320165 20.56° C 40% 1009.4 hPa 0 mm - - -
1788319265 20° C 41% 1008.9 hPa 0 mm - - -
1788318365 20° C 43% 1008.6 hPa 0 mm - - -

* Rain latest hour (hover to see other rain measurements)
** Current wind speed in m/s (hover to see current wind gust speed)